sensor_id;sensor_type;location;lat;lon;timestamp;temperature;humidity
8412;HTU21D;4243;49.296;11.348;2022-07-23T00:00:31;20.37;118.99
8412;HTU21D;4243;49.296;11.348;2022-07-23T00:03:05;20.55;118.99
8412;HTU21D;4243;49.296;11.348;2022-07-23T00:05:33;20.61;118.99
8412;HTU21D;4243;49.296;11.348;2022-07-23T00:08:03;20.72;118.99
8412;HTU21D;4243;49.296;11.348;2022-07-23T00:10:31;21.00;1.00
8412;HTU21D;4243;49.296;11.348;2022-07-23T00:10:32;20.76;118.99
8412;HTU21D;4243;49.296;11.348;2022-07-23T00:12:59;21.00;1.00
8412;HTU21D;4243;49.296;11.348;2022-07-23T00:12:59;20.88;118.99
8412;HTU21D;4243;49.296;11.348;2022-07-23T00:15:27;20.88;118.99
8412;HTU21D;4243;49.296;11.348;2022-07-23T00:17:54;20.87;118.99
8412;HTU21D;4243;49.296;11.348;2022-07-23T00:20:21;20.80;118.99
8412;HTU21D;4243;49.296;11.348;2022-07-23T00:20:21;20.80;1.00
8412;HTU21D;4243;49.296;11.348;2022-07-23T00:22:50;20.83;118.99
8412;HTU21D;4243;49.296;11.348;2022-07-23T00:25:19;20.76;118.99
8412;HTU21D;4243;49.296;11.348;2022-07-23T00:28:01;20.72;118.99
8412;HTU21D;4243;49.296;11.348;2022-07-23T00:30:31;20.68;118.99
8412;HTU21D;4243;49.296;11.348;2022-07-23T00:33:03;20.62;118.99
8412;HTU21D;4243;49.296;11.348;2022-07-23T00:35:35;20.55;118.99
8412;HTU21D;4243;49.296;11.348;2022-07-23T00:38:05;20.45;118.99
8412;HTU21D;4243;49.296;11.348;2022-07-23T00:40:33;20.36;118.99
8412;HTU21D;4243;49.296;11.348;2022-07-23T00:43:01;20.27;118.99
8412;HTU21D;4243;49.296;11.348;2022-07-23T00:45:29;20.11;118.99
8412;HTU21D;4243;49.296;11.348;2022-07-23T00:47:57;20.10;118.99
8412;HTU21D;4243;49.296;11.348;2022-07-23T00:50:25;20.00;118.99
8412;HTU21D;4243;49.296;11.348;2022-07-23T00:52:52;19.40;1.00
8412;HTU21D;4243;49.296;11.348;2022-07-23T00:52:53;19.86;118.99
8412;HTU21D;4243;49.296;11.348;2022-07-23T00:55:20;19.30;1.00
8412;HTU21D;4243;49.296;11.348;2022-07-23T00:55:20;19.79;118.99
8412;HTU21D;4243;49.296;11.348;2022-07-23T00:57:48;19.71;118.99
8412;HTU21D;4243;49.296;11.348;2022-07-23T01:00:16;19.75;118.99
8412;HTU21D;4243;49.296;11.348;2022-07-23T01:02:43;19.50;1.00
8412;HTU21D;4243;49.296;11.348;2022-07-23T01:02:43;19.75;118.99
8412;HTU21D;4243;49.296;11.348;2022-07-23T01:05:14;19.77;118.99
8412;HTU21D;4243;49.296;11.348;2022-07-23T01:05:14;19.50;1.00
8412;HTU21D;4243;49.296;11.348;2022-07-23T01:07:43;19.76;118.99
8412;HTU21D;4243;49.296;11.348;2022-07-23T01:10:10;19.80;118.99
8412;HTU21D;4243;49.296;11.348;2022-07-23T01:13:00;19.87;118.99
8412;HTU21D;4243;49.296;11.348;2022-07-23T01:15:30;19.95;118.99
8412;HTU21D;4243;49.296;11.348;2022-07-23T01:17:59;19.98;118.99
8412;HTU21D;4243;49.296;11.348;2022-07-23T01:20:27;20.03;118.99
8412;HTU21D;4243;49.296;11.348;2022-07-23T01:22:56;20.01;118.99
8412;HTU21D;4243;49.296;11.348;2022-07-23T01:25:24;20.04;118.99
8412;HTU21D;4243;49.296;11.348;2022-07-23T01:27:57;20.07;118.99
8412;HTU21D;4243;49.296;11.348;2022-07-23T01:30:25;20.06;118.99
8412;HTU21D;4243;49.296;11.348;2022-07-23T01:32:53;20.16;118.99
8412;HTU21D;4243;49.296;11.348;2022-07-23T01:35:21;20.13;118.99
8412;HTU21D;4243;49.296;11.348;2022-07-23T01:37:50;20.10;118.99
8412;HTU21D;4243;49.296;11.348;2022-07-23T01:40:19;20.10;118.99
8412;HTU21D;4243;49.296;11.348;2022-07-23T01:42:50;20.07;118.99
8412;HTU21D;4243;49.296;11.348;2022-07-23T01:45:18;20.04;118.99
8412;HTU21D;4243;49.296;11.348;2022-07-23T01:47:49;20.03;118.99
8412;HTU21D;4243;49.296;11.348;2022-07-23T01:50:17;19.91;118.99
8412;HTU21D;4243;49.296;11.348;2022-07-23T01:52:59;19.89;118.99
8412;HTU21D;4243;49.296;11.348;2022-07-23T01:55:27;19.83;118.99
8412;HTU21D;4243;49.296;11.348;2022-07-23T01:57:54;19.83;118.99
8412;HTU21D;4243;49.296;11.348;2022-07-23T02:00:27;19.76;118.99
8412;HTU21D;4243;49.296;11.348;2022-07-23T02:02:55;19.72;118.99
8412;HTU21D;4243;49.296;11.348;2022-07-23T02:05:23;19.72;118.99
8412;HTU21D;4243;49.296;11.348;2022-07-23T02:07:50;19.71;118.99
8412;HTU21D;4243;49.296;11.348;2022-07-23T02:10:17;19.30;1.00
8412;HTU21D;4243;49.296;11.348;2022-07-23T02:10:18;19.70;118.99
8412;HTU21D;4243;49.296;11.348;2022-07-23T02:12:44;19.30;1.00
8412;HTU21D;4243;49.296;11.348;2022-07-23T02:12:45;19.67;118.99
8412;HTU21D;4243;49.296;11.348;2022-07-23T02:15:12;19.68;118.99
8412;HTU21D;4243;49.296;11.348;2022-07-23T02:17:41;19.65;118.99
8412;HTU21D;4243;49.296;11.348;2022-07-23T02:20:10;19.59;118.99
8412;HTU21D;4243;49.296;11.348;2022-07-23T02:22:38;19.58;118.99
8412;HTU21D;4243;49.296;11.348;2022-07-23T02:22:38;19.10;1.00
8412;HTU21D;4243;49.296;11.348;2022-07-23T02:25:06;19.20;1.00
8412;HTU21D;4243;49.296;11.348;2022-07-23T02:25:07;19.57;118.99
8412;HTU21D;4243;49.296;11.348;2022-07-23T02:27:35;19.20;1.00
8412;HTU21D;4243;49.296;11.348;2022-07-23T02:27:36;19.58;118.99
8412;HTU21D;4243;49.296;11.348;2022-07-23T02:30:06;19.59;118.99
8412;HTU21D;4243;49.296;11.348;2022-07-23T02:32:34;19.59;118.99
8412;HTU21D;4243;49.296;11.348;2022-07-23T02:35:03;19.20;1.00
8412;HTU21D;4243;49.296;11.348;2022-07-23T02:35:03;19.57;118.99
8412;HTU21D;4243;49.296;11.348;2022-07-23T02:37:32;19.55;118.99
8412;HTU21D;4243;49.296;11.348;2022-07-23T02:40:00;19.56;118.99
8412;HTU21D;4243;49.296;11.348;2022-07-23T02:42:28;19.59;118.99
8412;HTU21D;4243;49.296;11.348;2022-07-23T02:44:56;19.60;118.99
8412;HTU21D;4243;49.296;11.348;2022-07-23T02:47:23;19.67;118.99
8412;HTU21D;4243;49.296;11.348;2022-07-23T02:49:51;19.70;118.99
8412;HTU21D;4243;49.296;11.348;2022-07-23T02:52:18;19.77;118.99
8412;HTU21D;4243;49.296;11.348;2022-07-23T02:54:46;19.89;118.99
8412;HTU21D;4243;49.296;11.348;2022-07-23T02:57:16;19.96;118.99
8412;HTU21D;4243;49.296;11.348;2022-07-23T02:59:43;20.07;118.99
8412;HTU21D;4243;49.296;11.348;2022-07-23T03:02:11;20.14;118.99
8412;HTU21D;4243;49.296;11.348;2022-07-23T03:04:38;20.20;1.00
8412;HTU21D;4243;49.296;11.348;2022-07-23T03:04:38;20.18;118.99
8412;HTU21D;4243;49.296;11.348;2022-07-23T03:07:06;20.14;118.99
8412;HTU21D;4243;49.296;11.348;2022-07-23T03:09:33;20.16;118.99
8412;HTU21D;4243;49.296;11.348;2022-07-23T03:12:01;20.15;118.99
8412;HTU21D;4243;49.296;11.348;2022-07-23T03:14:41;20.13;118.99
8412;HTU21D;4243;49.296;11.348;2022-07-23T03:14:41;20.10;1.00
8412;HTU21D;4243;49.296;11.348;2022-07-23T03:17:09;20.17;118.99
8412;HTU21D;4243;49.296;11.348;2022-07-23T03:19:36;20.20;1.00
8412;HTU21D;4243;49.296;11.348;2022-07-23T03:19:37;20.19;118.99
8412;HTU21D;4243;49.296;11.348;2022-07-23T03:22:07;20.18;118.99
8412;HTU21D;4243;49.296;11.348;2022-07-23T03:24:34;20.14;118.99
8412;HTU21D;4243;49.296;11.348;2022-07-23T03:27:27;20.10;1.00
8412;HTU21D;4243;49.296;11.348;2022-07-23T03:27:28;20.13;118.99
8412;HTU21D;4243;49.296;11.348;2022-07-23T03:29:59;20.19;118.99
8412;HTU21D;4243;49.296;11.348;2022-07-23T03:32:27;20.19;118.99
8412;HTU21D;4243;49.296;11.348;2022-07-23T03:34:55;20.21;118.99
8412;HTU21D;4243;49.296;11.348;2022-07-23T03:37:24;20.25;118.99
8412;HTU21D;4243;49.296;11.348;2022-07-23T03:39:52;20.22;118.99
8412;HTU21D;4243;49.296;11.348;2022-07-23T03:42:20;20.24;118.99
8412;HTU21D;4243;49.296;11.348;2022-07-23T03:44:47;20.25;118.99
8412;HTU21D;4243;49.296;11.348;2022-07-23T03:47:15;20.27;118.99
8412;HTU21D;4243;49.296;11.348;2022-07-23T03:49:44;20.32;118.99
8412;HTU21D;4243;49.296;11.348;2022-07-23T03:52:12;20.43;118.99
8412;HTU21D;4243;49.296;11.348;2022-07-23T03:54:39;20.54;118.99
8412;HTU21D;4243;49.296;11.348;2022-07-23T03:57:07;20.65;118.99
8412;HTU21D;4243;49.296;11.348;2022-07-23T03:59:34;20.70;118.99
8412;HTU21D;4243;49.296;11.348;2022-07-23T04:02:02;20.73;118.99
8412;HTU21D;4243;49.296;11.348;2022-07-23T04:04:30;20.71;118.99
8412;HTU21D;4243;49.296;11.348;2022-07-23T04:06:58;20.68;118.99
8412;HTU21D;4243;49.296;11.348;2022-07-23T04:09:26;20.62;118.99
8412;HTU21D;4243;49.296;11.348;2022-07-23T04:11:53;20.53;118.99
8412;HTU21D;4243;49.296;11.348;2022-07-23T04:14:21;20.44;118.99
8412;HTU21D;4243;49.296;11.348;2022-07-23T04:16:49;20.35;118.99
8412;HTU21D;4243;49.296;11.348;2022-07-23T04:19:17;20.28;118.99
8412;HTU21D;4243;49.296;11.348;2022-07-23T04:21:56;20.20;1.00
8412;HTU21D;4243;49.296;11.348;2022-07-23T04:21:57;20.27;118.99
8412;HTU21D;4243;49.296;11.348;2022-07-23T04:24:24;20.18;118.99
8412;HTU21D;4243;49.296;11.348;2022-07-23T04:26:52;20.14;118.99
8412;HTU21D;4243;49.296;11.348;2022-07-23T04:29:20;20.05;118.99
8412;HTU21D;4243;49.296;11.348;2022-07-23T04:31:48;20.00;1.00
8412;HTU21D;4243;49.296;11.348;2022-07-23T04:31:48;20.02;118.99
8412;HTU21D;4243;49.296;11.348;2022-07-23T04:34:17;20.00;118.99
8412;HTU21D;4243;49.296;11.348;2022-07-23T04:36:45;19.98;118.99
8412;HTU21D;4243;49.296;11.348;2022-07-23T04:39:13;20.00;118.99
8412;HTU21D;4243;49.296;11.348;2022-07-23T04:41:42;19.97;118.99
8412;HTU21D;4243;49.296;11.348;2022-07-23T04:44:09;19.99;118.99
8412;HTU21D;4243;49.296;11.348;2022-07-23T04:46:38;19.95;118.99
8412;HTU21D;4243;49.296;11.348;2022-07-23T04:46:38;19.80;1.50
8412;HTU21D;4243;49.296;11.348;2022-07-23T04:49:06;19.80;12.80
8412;HTU21D;4243;49.296;11.348;2022-07-23T04:49:07;19.97;118.99
8412;HTU21D;4243;49.296;11.348;2022-07-23T04:51:34;19.97;118.99
8412;HTU21D;4243;49.296;11.348;2022-07-23T04:51:34;19.80;24.80
8412;HTU21D;4243;49.296;11.348;2022-07-23T04:54:02;20.01;118.99
8412;HTU21D;4243;49.296;11.348;2022-07-23T04:56:29;19.80;49.00
8412;HTU21D;4243;49.296;11.348;2022-07-23T04:56:29;20.04;118.99
8412;HTU21D;4243;49.296;11.348;2022-07-23T04:58:57;20.01;118.99
8412;HTU21D;4243;49.296;11.348;2022-07-23T05:01:24;20.02;118.99
8412;HTU21D;4243;49.296;11.348;2022-07-23T05:01:24;19.70;81.70
8412;HTU21D;4243;49.296;11.348;2022-07-23T05:03:52;20.01;118.99
8412;HTU21D;4243;49.296;11.348;2022-07-23T05:06:20;19.99;118.99
8412;HTU21D;4243;49.296;11.348;2022-07-23T05:08:48;20.02;118.99
8412;HTU21D;4243;49.296;11.348;2022-07-23T05:11:15;19.80;99.90
8412;HTU21D;4243;49.296;11.348;2022-07-23T05:11:15;20.00;118.99
8412;HTU21D;4243;49.296;11.348;2022-07-23T05:13:44;20.04;118.99
8412;HTU21D;4243;49.296;11.348;2022-07-23T05:16:11;20.12;118.99
8412;HTU21D;4243;49.296;11.348;2022-07-23T05:18:39;20.10;118.99
8412;HTU21D;4243;49.296;11.348;2022-07-23T05:21:07;20.13;118.99
8412;HTU21D;4243;49.296;11.348;2022-07-23T05:23:34;20.13;118.99
8412;HTU21D;4243;49.296;11.348;2022-07-23T05:26:02;20.16;118.99
8412;HTU21D;4243;49.296;11.348;2022-07-23T05:28:31;20.21;118.99
8412;HTU21D;4243;49.296;11.348;2022-07-23T05:30:59;20.30;118.99
8412;HTU21D;4243;49.296;11.348;2022-07-23T05:33:27;20.40;17.40
8412;HTU21D;4243;49.296;11.348;2022-07-23T05:33:28;20.42;118.99
8412;HTU21D;4243;49.296;11.348;2022-07-23T05:36:03;20.60;1.00
8412;HTU21D;4243;49.296;11.348;2022-07-23T05:36:04;20.54;118.99
8412;HTU21D;4243;49.296;11.348;2022-07-23T05:38:34;20.70;118.99
8412;HTU21D;4243;49.296;11.348;2022-07-23T05:41:03;20.87;118.99
8412;HTU21D;4243;49.296;11.348;2022-07-23T05:43:31;21.04;118.99
8412;HTU21D;4243;49.296;11.348;2022-07-23T05:46:04;21.21;118.99
8412;HTU21D;4243;49.296;11.348;2022-07-23T05:48:33;21.34;118.99
8412;HTU21D;4243;49.296;11.348;2022-07-23T05:51:06;21.57;118.99
8412;HTU21D;4243;49.296;11.348;2022-07-23T05:53:35;21.73;118.99
8412;HTU21D;4243;49.296;11.348;2022-07-23T05:56:09;21.85;118.99
8412;HTU21D;4243;49.296;11.348;2022-07-23T05:58:38;21.98;118.99
8412;HTU21D;4243;49.296;11.348;2022-07-23T06:01:06;22.09;118.99
8412;HTU21D;4243;49.296;11.348;2022-07-23T06:03:42;22.23;118.99
8412;HTU21D;4243;49.296;11.348;2022-07-23T06:06:10;22.40;118.99
8412;HTU21D;4243;49.296;11.348;2022-07-23T06:08:38;22.49;118.99
8412;HTU21D;4243;49.296;11.348;2022-07-23T06:11:08;22.60;118.99
8412;HTU21D;4243;49.296;11.348;2022-07-23T06:13:36;22.76;118.99
8412;HTU21D;4243;49.296;11.348;2022-07-23T06:16:04;22.86;118.99
8412;HTU21D;4243;49.296;11.348;2022-07-23T06:18:31;23.01;118.99
8412;HTU21D;4243;49.296;11.348;2022-07-23T06:18:31;23.00;1.00
8412;HTU21D;4243;49.296;11.348;2022-07-23T06:20:59;23.08;118.99
8412;HTU21D;4243;49.296;11.348;2022-07-23T06:23:27;23.20;1.00
8412;HTU21D;4243;49.296;11.348;2022-07-23T06:23:27;23.27;118.99
8412;HTU21D;4243;49.296;11.348;2022-07-23T06:25:54;23.35;118.99
8412;HTU21D;4243;49.296;11.348;2022-07-23T06:28:22;23.43;118.99
8412;HTU21D;4243;49.296;11.348;2022-07-23T06:30:50;23.57;118.99
8412;HTU21D;4243;49.296;11.348;2022-07-23T06:33:18;23.73;118.99
8412;HTU21D;4243;49.296;11.348;2022-07-23T06:35:45;23.83;118.99
8412;HTU21D;4243;49.296;11.348;2022-07-23T06:38:12;23.80;1.00
8412;HTU21D;4243;49.296;11.348;2022-07-23T06:38:13;23.96;118.99
8412;HTU21D;4243;49.296;11.348;2022-07-23T06:40:41;24.10;118.99
8412;HTU21D;4243;49.296;11.348;2022-07-23T06:43:10;24.29;118.99
8412;HTU21D;4243;49.296;11.348;2022-07-23T06:45:38;24.41;118.99
8412;HTU21D;4243;49.296;11.348;2022-07-23T06:48:05;24.53;118.99
8412;HTU21D;4243;49.296;11.348;2022-07-23T06:50:34;24.73;118.99
8412;HTU21D;4243;49.296;11.348;2022-07-23T06:53:02;25.04;118.99
8412;HTU21D;4243;49.296;11.348;2022-07-23T06:55:29;25.34;118.99
8412;HTU21D;4243;49.296;11.348;2022-07-23T06:57:58;25.54;118.99
8412;HTU21D;4243;49.296;11.348;2022-07-23T07:00:25;25.67;118.99
8412;HTU21D;4243;49.296;11.348;2022-07-23T07:02:54;25.82;118.99
8412;HTU21D;4243;49.296;11.348;2022-07-23T07:05:22;25.90;118.99
8412;HTU21D;4243;49.296;11.348;2022-07-23T07:07:49;25.99;118.99
8412;HTU21D;4243;49.296;11.348;2022-07-23T07:07:49;24.80;1.00
8412;HTU21D;4243;49.296;11.348;2022-07-23T07:10:17;26.26;118.99
8412;HTU21D;4243;49.296;11.348;2022-07-23T07:12:45;26.73;118.99
8412;HTU21D;4243;49.296;11.348;2022-07-23T07:15:12;27.11;118.99
8412;HTU21D;4243;49.296;11.348;2022-07-23T07:17:40;27.24;118.99
8412;HTU21D;4243;49.296;11.348;2022-07-23T07:17:40;25.70;1.00
8412;HTU21D;4243;49.296;11.348;2022-07-23T07:20:09;27.28;118.99
8412;HTU21D;4243;49.296;11.348;2022-07-23T07:22:37;27.42;118.99
8412;HTU21D;4243;49.296;11.348;2022-07-23T07:25:05;27.46;118.99
8412;HTU21D;4243;49.296;11.348;2022-07-23T07:27:33;27.47;118.99
8412;HTU21D;4243;49.296;11.348;2022-07-23T07:30:00;25.70;1.00
8412;HTU21D;4243;49.296;11.348;2022-07-23T07:30:01;27.30;118.99
8412;HTU21D;4243;49.296;11.348;2022-07-23T07:32:29;27.23;118.99
8412;HTU21D;4243;49.296;11.348;2022-07-23T07:35:17;27.09;118.99
8412;HTU21D;4243;49.296;11.348;2022-07-23T07:37:44;26.62;118.99
8412;HTU21D;4243;49.296;11.348;2022-07-23T07:40:12;26.42;118.99
8412;HTU21D;4243;49.296;11.348;2022-07-23T07:42:47;26.55;118.99
8412;HTU21D;4243;49.296;11.348;2022-07-23T07:45:15;26.58;118.99
8412;HTU21D;4243;49.296;11.348;2022-07-23T07:47:43;26.52;118.99
8412;HTU21D;4243;49.296;11.348;2022-07-23T07:50:10;26.71;118.99
8412;HTU21D;4243;49.296;11.348;2022-07-23T07:52:38;26.87;118.99
8412;HTU21D;4243;49.296;11.348;2022-07-23T07:55:07;27.26;118.99
8412;HTU21D;4243;49.296;11.348;2022-07-23T07:57:36;28.02;118.99
8412;HTU21D;4243;49.296;11.348;2022-07-23T08:00:08;28.59;118.99
8412;HTU21D;4243;49.296;11.348;2022-07-23T08:03:52;29.31;118.99
8412;HTU21D;4243;49.296;11.348;2022-07-23T08:06:22;30.34;118.99
8412;HTU21D;4243;49.296;11.348;2022-07-23T08:08:49;30.61;118.99
8412;HTU21D;4243;49.296;11.348;2022-07-23T08:11:17;31.15;118.99
8412;HTU21D;4243;49.296;11.348;2022-07-23T08:13:44;30.92;118.99
8412;HTU21D;4243;49.296;11.348;2022-07-23T08:16:12;30.95;118.99
8412;HTU21D;4243;49.296;11.348;2022-07-23T08:18:39;32.17;118.99
8412;HTU21D;4243;49.296;11.348;2022-07-23T08:21:07;33.19;118.99
8412;HTU21D;4243;49.296;11.348;2022-07-23T08:23:35;33.35;118.99
8412;HTU21D;4243;49.296;11.348;2022-07-23T08:26:02;33.90;118.99
8412;HTU21D;4243;49.296;11.348;2022-07-23T08:28:30;34.52;118.99
8412;HTU21D;4243;49.296;11.348;2022-07-23T08:31:01;33.38;118.99
8412;HTU21D;4243;49.296;11.348;2022-07-23T08:33:28;32.72;118.99
8412;HTU21D;4243;49.296;11.348;2022-07-23T08:36:01;28.00;1.00
8412;HTU21D;4243;49.296;11.348;2022-07-23T08:36:02;33.19;118.99
8412;HTU21D;4243;49.296;11.348;2022-07-23T08:38:32;34.26;118.99
8412;HTU21D;4243;49.296;11.348;2022-07-23T08:38:32;28.50;1.00
8412;HTU21D;4243;49.296;11.348;2022-07-23T08:41:00;29.00;1.00
8412;HTU21D;4243;49.296;11.348;2022-07-23T08:41:00;35.22;118.99
8412;HTU21D;4243;49.296;11.348;2022-07-23T08:43:32;36.57;118.99
8412;HTU21D;4243;49.296;11.348;2022-07-23T08:46:02;37.11;118.99
8412;HTU21D;4243;49.296;11.348;2022-07-23T08:48:35;29.90;1.00
8412;HTU21D;4243;49.296;11.348;2022-07-23T08:48:35;37.42;118.99
8412;HTU21D;4243;49.296;11.348;2022-07-23T08:51:06;29.80;1.00
8412;HTU21D;4243;49.296;11.348;2022-07-23T08:51:07;37.04;118.99
8412;HTU21D;4243;49.296;11.348;2022-07-23T08:53:35;37.02;118.99
8412;HTU21D;4243;49.296;11.348;2022-07-23T08:56:06;37.94;118.99
8412;HTU21D;4243;49.296;11.348;2022-07-23T08:58:36;38.67;118.99
8412;HTU21D;4243;49.296;11.348;2022-07-23T09:01:04;37.79;118.99
8412;HTU21D;4243;49.296;11.348;2022-07-23T09:03:36;36.06;118.99
8412;HTU21D;4243;49.296;11.348;2022-07-23T09:06:05;34.85;118.99
8412;HTU21D;4243;49.296;11.348;2022-07-23T09:08:37;33.31;118.99
8412;HTU21D;4243;49.296;11.348;2022-07-23T09:11:08;32.10;118.99
8412;HTU21D;4243;49.296;11.348;2022-07-23T09:13:50;30.70;118.99
8412;HTU21D;4243;49.296;11.348;2022-07-23T09:16:26;29.50;118.99
8412;HTU21D;4243;49.296;11.348;2022-07-23T09:19:03;25.30;1.00
8412;HTU21D;4243;49.296;11.348;2022-07-23T09:19:04;28.65;118.99
8412;HTU21D;4243;49.296;11.348;2022-07-23T09:21:34;25.10;1.00
8412;HTU21D;4243;49.296;11.348;2022-07-23T09:21:35;28.06;118.99
8412;HTU21D;4243;49.296;11.348;2022-07-23T09:26:38;24.60;1.00
8412;HTU21D;4243;49.296;11.348;2022-07-23T09:26:39;26.86;118.99
8412;HTU21D;4243;49.296;11.348;2022-07-23T09:29:15;26.46;118.99
8412;HTU21D;4243;49.296;11.348;2022-07-23T09:31:59;26.21;118.99
8412;HTU21D;4243;49.296;11.348;2022-07-23T09:34:30;24.10;1.00
8412;HTU21D;4243;49.296;11.348;2022-07-23T09:34:31;25.84;118.99
8412;HTU21D;4243;49.296;11.348;2022-07-23T09:37:10;25.62;118.99
8412;HTU21D;4243;49.296;11.348;2022-07-23T09:39:43;25.49;118.99
8412;HTU21D;4243;49.296;11.348;2022-07-23T09:42:20;25.48;118.99
8412;HTU21D;4243;49.296;11.348;2022-07-23T09:44:51;25.36;118.99
8412;HTU21D;4243;49.296;11.348;2022-07-23T09:47:20;23.60;1.00
8412;HTU21D;4243;49.296;11.348;2022-07-23T09:47:22;25.38;118.99
8412;HTU21D;4243;49.296;11.348;2022-07-23T09:50:09;25.44;118.99
8412;HTU21D;4243;49.296;11.348;2022-07-23T09:52:47;25.23;118.99
8412;HTU21D;4243;49.296;11.348;2022-07-23T09:55:19;25.29;118.99
8412;HTU21D;4243;49.296;11.348;2022-07-23T09:57:47;23.30;1.00
8412;HTU21D;4243;49.296;11.348;2022-07-23T09:57:47;25.33;118.99
8412;HTU21D;4243;49.296;11.348;2022-07-23T10:00:18;25.24;118.99
8412;HTU21D;4243;49.296;11.348;2022-07-23T10:02:47;24.88;118.99
8412;HTU21D;4243;49.296;11.348;2022-07-23T10:05:30;24.63;118.99
8412;HTU21D;4243;49.296;11.348;2022-07-23T10:08:13;24.18;118.99
8412;HTU21D;4243;49.296;11.348;2022-07-23T10:11:01;24.03;118.99
8412;HTU21D;4243;49.296;11.348;2022-07-23T10:13:59;23.82;118.99
8412;HTU21D;4243;49.296;11.348;2022-07-23T10:16:56;23.58;118.99
8412;HTU21D;4243;49.296;11.348;2022-07-23T10:19:23;23.47;118.99
8412;HTU21D;4243;49.296;11.348;2022-07-23T10:22:09;21.80;1.00
8412;HTU21D;4243;49.296;11.348;2022-07-23T10:22:11;23.44;118.99
8412;HTU21D;4243;49.296;11.348;2022-07-23T10:27:53;21.70;1.00
8412;HTU21D;4243;49.296;11.348;2022-07-23T10:34:24;23.59;118.99
8412;HTU21D;4243;49.296;11.348;2022-07-23T10:40:20;24.00;118.99
8412;HTU21D;4243;49.296;11.348;2022-07-23T10:42:50;22.10;1.00
8412;HTU21D;4243;49.296;11.348;2022-07-23T10:42:51;24.15;118.99
8412;HTU21D;4243;49.296;11.348;2022-07-23T10:45:30;24.33;118.99
8412;HTU21D;4243;49.296;11.348;2022-07-23T10:48:22;24.55;118.99
8412;HTU21D;4243;49.296;11.348;2022-07-23T10:51:13;22.30;1.00
8412;HTU21D;4243;49.296;11.348;2022-07-23T10:51:14;24.60;118.99
8412;HTU21D;4243;49.296;11.348;2022-07-23T10:56:48;24.35;118.99
8412;HTU21D;4243;49.296;11.348;2022-07-23T10:59:22;24.06;118.99
8412;HTU21D;4243;49.296;11.348;2022-07-23T11:01:49;21.70;1.00
8412;HTU21D;4243;49.296;11.348;2022-07-23T11:01:50;23.85;118.99
8412;HTU21D;4243;49.296;11.348;2022-07-23T11:04:19;23.67;118.99
8412;HTU21D;4243;49.296;11.348;2022-07-23T11:09:26;23.34;118.99
8412;HTU21D;4243;49.296;11.348;2022-07-23T11:18:16;21.60;1.00
8412;HTU21D;4243;49.296;11.348;2022-07-23T11:20:21;22.97;118.99
8412;HTU21D;4243;49.296;11.348;2022-07-23T11:22:55;21.40;1.00
8412;HTU21D;4243;49.296;11.348;2022-07-23T11:22:56;22.73;118.99
8412;HTU21D;4243;49.296;11.348;2022-07-23T11:30:44;20.50;99.90
8412;HTU21D;4243;49.296;11.348;2022-07-23T11:30:45;21.75;118.99
8412;HTU21D;4243;49.296;11.348;2022-07-23T11:35:45;20.86;118.99
8412;HTU21D;4243;49.296;11.348;2022-07-23T11:38:18;20.47;118.99
8412;HTU21D;4243;49.296;11.348;2022-07-23T11:40:52;20.15;118.99
8412;HTU21D;4243;49.296;11.348;2022-07-23T11:43:22;19.94;118.99
8412;HTU21D;4243;49.296;11.348;2022-07-23T11:45:57;19.90;118.99
8412;HTU21D;4243;49.296;11.348;2022-07-23T11:48:30;20.02;118.99
8412;HTU21D;4243;49.296;11.348;2022-07-23T11:48:30;19.40;1.00
8412;HTU21D;4243;49.296;11.348;2022-07-23T11:51:07;20.29;118.99
8412;HTU21D;4243;49.296;11.348;2022-07-23T11:53:35;20.69;118.99
8412;HTU21D;4243;49.296;11.348;2022-07-23T11:56:10;21.32;118.99
8412;HTU21D;4243;49.296;11.348;2022-07-23T11:58:39;22.43;118.99
8412;HTU21D;4243;49.296;11.348;2022-07-23T12:01:06;24.03;118.99
8412;HTU21D;4243;49.296;11.348;2022-07-23T12:01:06;23.20;99.90
8412;HTU21D;4243;49.296;11.348;2022-07-23T12:03:50;25.73;118.99
8412;HTU21D;4243;49.296;11.348;2022-07-23T12:06:17;23.90;99.90
8412;HTU21D;4243;49.296;11.348;2022-07-23T12:06:18;27.14;118.99
8412;HTU21D;4243;49.296;11.348;2022-07-23T12:08:45;27.36;118.99
8412;HTU21D;4243;49.296;11.348;2022-07-23T12:11:14;27.51;118.99
8412;HTU21D;4243;49.296;11.348;2022-07-23T12:13:56;28.69;118.99
8412;HTU21D;4243;49.296;11.348;2022-07-23T12:16:28;30.36;118.99
8412;HTU21D;4243;49.296;11.348;2022-07-23T12:18:56;25.90;1.00
8412;HTU21D;4243;49.296;11.348;2022-07-23T12:18:56;31.63;118.99
8412;HTU21D;4243;49.296;11.348;2022-07-23T12:21:23;32.64;118.99
8412;HTU21D;4243;49.296;11.348;2022-07-23T12:23:51;33.82;118.99
8412;HTU21D;4243;49.296;11.348;2022-07-23T12:26:20;34.05;118.99
8412;HTU21D;4243;49.296;11.348;2022-07-23T12:28:52;34.54;118.99
8412;HTU21D;4243;49.296;11.348;2022-07-23T12:28:52;27.30;1.00
8412;HTU21D;4243;49.296;11.348;2022-07-23T12:31:26;35.58;118.99
8412;HTU21D;4243;49.296;11.348;2022-07-23T12:33:54;36.08;118.99
8412;HTU21D;4243;49.296;11.348;2022-07-23T12:33:54;28.20;1.00
8412;HTU21D;4243;49.296;11.348;2022-07-23T12:36:37;28.20;1.00
8412;HTU21D;4243;49.296;11.348;2022-07-23T12:36:38;36.13;118.99
8412;HTU21D;4243;49.296;11.348;2022-07-23T12:39:06;35.49;118.99
8412;HTU21D;4243;49.296;11.348;2022-07-23T12:41:53;28.00;1.00
8412;HTU21D;4243;49.296;11.348;2022-07-23T12:41:53;35.45;118.99
8412;HTU21D;4243;49.296;11.348;2022-07-23T12:44:21;36.52;118.99
8412;HTU21D;4243;49.296;11.348;2022-07-23T12:46:53;36.83;118.99
8412;HTU21D;4243;49.296;11.348;2022-07-23T12:49:27;36.09;118.99
8412;HTU21D;4243;49.296;11.348;2022-07-23T12:49:27;28.60;1.00
8412;HTU21D;4243;49.296;11.348;2022-07-23T12:51:56;35.63;118.99
8412;HTU21D;4243;49.296;11.348;2022-07-23T12:54:27;28.30;1.00
8412;HTU21D;4243;49.296;11.348;2022-07-23T12:54:28;35.15;118.99
8412;HTU21D;4243;49.296;11.348;2022-07-23T12:56:55;34.74;118.99
8412;HTU21D;4243;49.296;11.348;2022-07-23T12:59:22;28.00;1.00
8412;HTU21D;4243;49.296;11.348;2022-07-23T12:59:23;34.27;118.99
8412;HTU21D;4243;49.296;11.348;2022-07-23T13:01:56;27.50;1.00
8412;HTU21D;4243;49.296;11.348;2022-07-23T13:01:56;33.12;118.99
8412;HTU21D;4243;49.296;11.348;2022-07-23T13:04:29;32.25;118.99
8412;HTU21D;4243;49.296;11.348;2022-07-23T13:06:59;32.23;118.99
8412;HTU21D;4243;49.296;11.348;2022-07-23T13:09:33;31.83;118.99
8412;HTU21D;4243;49.296;11.348;2022-07-23T13:12:08;32.11;118.99
8412;HTU21D;4243;49.296;11.348;2022-07-23T13:14:37;32.66;118.99
8412;HTU21D;4243;49.296;11.348;2022-07-23T13:17:05;33.07;118.99
8412;HTU21D;4243;49.296;11.348;2022-07-23T13:19:34;32.38;118.99
8412;HTU21D;4243;49.296;11.348;2022-07-23T13:22:01;31.80;118.99
8412;HTU21D;4243;49.296;11.348;2022-07-23T13:24:36;31.45;118.99
8412;HTU21D;4243;49.296;11.348;2022-07-23T13:27:06;30.99;118.99
8412;HTU21D;4243;49.296;11.348;2022-07-23T13:29:38;30.65;118.99
8412;HTU21D;4243;49.296;11.348;2022-07-23T13:32:05;30.21;118.99
8412;HTU21D;4243;49.296;11.348;2022-07-23T13:34:40;30.12;118.99
8412;HTU21D;4243;49.296;11.348;2022-07-23T13:37:08;30.08;118.99